Portada
METAR-TAF:

METAR-TAF

Aeroports :

Torí, Itàlia

latitud: 45-05-20N, longitud: 007-36-20E, altitud: 288 m

Observació

L'informe es va fer fa 1 hora i 35 minuts, a les 15:50 UTC
Vent calma
Temperatura 8°C
Humitat 61%
Pressió 1018 hPa
Visibilitat 10 km o més
sense núvols per sota de 1500 mi sense presència de cumulonimbus.

METAR: LIMA 071550Z 00000KT CAVOK 08/01 Q1018

Hora: 18:25 (17:25 UTC)


TAF: manca

Observacions i pronòstics meteorològics de més de 4000 aeroports (METAR i TAF).

Les estacions disponibles són els punts grocs i vermells al mapa.

Posi el ratolí al punt desitjat per veure el nom de l'estació.

Feu clic per veure les observacions i els pronòstics meteorològics.

Per canviar el mapa: feu clic els botons verds amb una creu de color negre per apropar; al botó verd amb un guió per allunyar la imatge; o en les fletxes verdes per a mapes adjacents.


METAR-TAF: